Time;durP1;ratioP1;P1;durP2;ratioP2;P2;SDS_P1;SDS_P2;PMS_P1;PMS_P2;Temp;Humidity;BMP_temperature;BMP_pressure;BME280_temperature;BME280_humidity;BME280_pressure;Samples;Min_cycle;Max_cycle;Signal;HPM_P1;HPM_P2
2023/11/23 00:00:56;;;;;;;6.65;1.80;;;11.20;99.90;;;;;;4968437;28;20050;-96
2023/11/23 00:03:21;;;;;;;9.93;2.00;;;11.20;99.90;;;;;;4972140;28;20031;-94
2023/11/23 00:05:47;;;;;;;7.72;1.75;;;11.20;99.90;;;;;;4961386;28;20034;-93
2023/11/23 00:08:13;;;;;;;4.57;1.92;;;11.20;99.90;;;;;;4961131;28;20038;-94
2023/11/23 00:10:39;;;;;;;4.20;1.27;;;11.20;99.90;;;;;;4961574;28;20027;-95
2023/11/23 00:13:05;;;;;;;8.27;2.40;;;11.20;99.90;;;;;;4960963;28;20125;-94
2023/11/23 00:15:31;;;;;;;2.10;1.40;;;11.20;99.90;;;;;;4961878;28;20029;-94
2023/11/23 00:17:57;;;;;;;5.85;1.85;;;11.20;99.90;;;;;;4970003;28;20023;-96
2023/11/23 00:20:23;;;;;;;4.63;1.90;;;11.20;99.90;;;;;;4975390;28;20030;-93
2023/11/23 00:22:49;;;;;;;8.02;1.70;;;11.20;99.90;;;;;;4970414;28;20030;-93
2023/11/23 00:25:14;;;;;;;4.53;1.70;;;11.30;99.90;;;;;;4967730;28;20039;-94
2023/11/23 00:27:40;;;;;;;6.95;2.00;;;11.20;99.90;;;;;;4964919;28;20031;-93
2023/11/23 00:30:07;;;;;;;6.82;1.83;;;11.20;99.90;;;;;;4961593;28;20396;-93
2023/11/23 00:32:33;;;;;;;4.75;1.38;;;11.20;99.90;;;;;;4961719;28;20034;-94
2023/11/23 00:34:59;;;;;;;6.85;1.90;;;11.20;99.90;;;;;;4961050;28;20034;-96
2023/11/23 00:37:24;;;;;;;4.28;1.60;;;11.20;99.90;;;;;;4963375;28;20022;-95
2023/11/23 00:39:50;;;;;;;4.03;1.20;;;11.30;99.90;;;;;;4961130;28;20077;-94
2023/11/23 00:42:16;;;;;;;4.50;1.50;;;11.20;99.90;;;;;;4962357;28;20019;-94
2023/11/23 00:44:42;;;;;;;8.75;1.65;;;11.30;99.90;;;;;;4962842;28;20469;-95
2023/11/23 00:47:07;;;;;;;8.80;1.67;;;11.30;99.90;;;;;;4961018;28;20110;-93
2023/11/23 00:49:36;;;;;;;3.85;1.90;;;11.30;99.90;;;;;;4960193;28;20476;-94
2023/11/23 00:52:01;;;;;;;4.18;1.73;;;11.20;99.90;;;;;;4961522;28;20105;-95
2023/11/23 00:54:37;;;;;;;5.20;1.90;;;11.30;99.90;;;;;;4964539;28;20031;-94
2023/11/23 00:57:06;;;;;;;6.03;1.90;;;11.30;99.90;;;;;;4967798;28;20054;-95
2023/11/23 00:59:32;;;;;;;7.47;1.73;;;11.30;99.90;;;;;;4966869;28;20035;-94
2023/11/23 01:02:00;;;;;;;4.50;1.40;;;11.30;99.90;;;;;;4961800;28;20026;-95
2023/11/23 01:04:27;;;;;;;9.15;2.22;;;11.30;99.90;;;;;;4961140;28;20054;-96
2023/11/23 01:06:53;;;;;;;9.38;1.88;;;11.20;99.90;;;;;;4977609;28;20133;-95
2023/11/23 01:09:19;;;;;;;5.20;2.15;;;11.30;99.90;;;;;;4959533;28;20069;-95
2023/11/23 01:11:44;;;;;;;13.45;2.60;;;11.30;99.90;;;;;;4959553;28;20058;-95
2023/11/23 01:14:10;;;;;;;8.80;2.00;;;11.30;99.90;;;;;;4958988;28;20061;-95
2023/11/23 01:16:36;;;;;;;11.88;3.65;;;11.30;99.90;;;;;;4959302;28;20027;-95
2023/11/23 01:19:02;;;;;;;7.20;1.95;;;11.30;99.90;;;;;;4958433;28;20396;-95
2023/11/23 01:21:28;;;;;;;5.03;1.38;;;11.30;99.90;;;;;;4959125;28;20105;-94
2023/11/23 01:23:54;;;;;;;5.35;1.70;;;11.30;99.90;;;;;;4958674;28;20385;-94
2023/11/23 01:26:19;;;;;;;6.50;1.73;;;11.30;99.90;;;;;;4960872;28;20035;-96
2023/11/23 01:28:45;;;;;;;7.82;2.05;;;11.20;99.90;;;;;;4965113;28;20101;-94
2023/11/23 01:31:11;;;;;;;3.58;1.48;;;11.20;99.90;;;;;;4962629;28;20023;-94
2023/11/23 01:33:37;;;;;;;3.65;1.35;;;11.20;99.90;;;;;;4959480;28;20039;-94
2023/11/23 01:36:02;;;;;;;2.85;1.60;;;11.20;99.90;;;;;;4959682;28;20041;-94
2023/11/23 01:38:28;;;;;;;4.38;1.45;;;11.20;99.90;;;;;;4960208;28;20050;-95
2023/11/23 01:40:54;;;;;;;6.53;1.60;;;11.20;99.90;;;;;;4960169;28;20042;-95
2023/11/23 01:43:21;;;;;;;7.28;1.85;;;11.20;99.90;;;;;;4959197;28;20109;-95
2023/11/23 01:45:46;;;;;;;5.28;2.20;;;11.20;99.90;;;;;;4974641;28;20027;-95
2023/11/23 01:48:17;;;;;;;5.60;1.35;;;11.20;99.90;;;;;;4977992;28;20029;-95
2023/11/23 01:50:44;;;;;;;5.20;1.88;;;11.20;99.90;;;;;;4977751;28;20496;-95
2023/11/23 01:53:11;;;;;;;6.32;1.30;;;11.20;99.90;;;;;;4978402;28;20551;-95
2023/11/23 01:55:37;;;;;;;7.63;1.75;;;11.20;99.90;;;;;;4979613;28;20030;-94
2023/11/23 01:58:06;;;;;;;8.00;1.80;;;11.20;99.90;;;;;;4979134;28;20117;-94
2023/11/23 02:00:33;;;;;;;7.88;1.88;;;11.20;99.90;;;;;;4979031;28;20056;-95
2023/11/23 02:03:00;;;;;;;7.07;1.77;;;11.20;99.90;;;;;;4980874;28;20034;-94
2023/11/23 02:05:26;;;;;;;7.45;2.05;;;11.20;99.90;;;;;;4985319;28;20026;-94
2023/11/23 02:07:52;;;;;;;4.72;2.13;;;11.20;99.90;;;;;;4998332;28;20109;-95
2023/11/23 02:10:18;;;;;;;7.00;1.95;;;11.20;99.90;;;;;;4978207;28;20018;-94
2023/11/23 02:12:47;;;;;;;10.20;1.90;;;11.20;99.90;;;;;;4978998;28;20023;-96
2023/11/23 02:15:13;;;;;;;7.15;1.80;;;11.20;99.90;;;;;;4977752;28;20113;-96
2023/11/23 02:17:39;;;;;;;6.47;1.52;;;11.20;99.90;;;;;;4977857;28;20097;-94
2023/11/23 02:20:08;;;;;;;4.82;2.85;;;11.20;99.90;;;;;;4982170;28;20113;-94
2023/11/23 02:22:35;;;;;;;5.95;1.40;;;11.10;99.90;;;;;;4981834;28;20484;-95
2023/11/23 02:25:00;;;;;;;7.43;2.05;;;11.10;99.90;;;;;;4985698;28;20093;-94
2023/11/23 02:27:26;;;;;;;5.28;1.77;;;11.10;99.90;;;;;;4989717;28;20045;-91
2023/11/23 02:29:52;;;;;;;7.10;1.17;;;11.10;99.90;;;;;;4990190;28;20121;-92
2023/11/23 02:32:18;;;;;;;2.63;1.27;;;11.10;99.90;;;;;;4994053;28;20034;-94
2023/11/23 02:34:43;;;;;;;6.78;1.45;;;11.10;99.90;;;;;;4988434;28;20052;-95
2023/11/23 02:37:09;;;;;;;4.53;1.50;;;11.10;99.90;;;;;;4984906;28;20119;-95
2023/11/23 02:39:35;;;;;;;5.55;1.35;;;11.00;99.90;;;;;;4999403;28;20046;-95
2023/11/23 02:42:00;;;;;;;4.13;1.20;;;11.00;99.90;;;;;;4983557;28;20030;-94
2023/11/23 02:44:26;;;;;;;3.58;1.27;;;11.00;99.90;;;;;;4980149;28;20027;-95
2023/11/23 02:46:52;;;;;;;5.28;1.17;;;11.00;99.90;;;;;;4981810;28;20035;-96
2023/11/23 02:49:20;;;;;;;4.85;1.30;;;11.00;99.90;;;;;;4983099;28;20038;-94
2023/11/23 02:51:46;;;;;;;3.85;1.20;;;11.00;99.90;;;;;;4980101;28;20034;-93
2023/11/23 02:54:12;;;;;;;2.88;1.23;;;11.00;99.90;;;;;;4977457;28;20122;-94
2023/11/23 02:56:37;;;;;;;9.30;1.40;;;11.00;99.90;;;;;;4978574;28;20042;-94
2023/11/23 02:59:09;;;;;;;2.28;1.10;;;10.90;99.90;;;;;;4977805;28;20033;-94
2023/11/23 03:01:35;;;;;;;6.30;1.38;;;10.90;99.90;;;;;;4979418;28;20066;-95
2023/11/23 03:04:01;;;;;;;3.85;1.33;;;10.90;99.90;;;;;;4980716;28;20053;-94
2023/11/23 03:06:26;;;;;;;10.20;2.67;;;10.90;99.90;;;;;;4980979;28;20050;-95
2023/11/23 03:08:53;;;;;;;2.95;1.10;;;10.90;99.90;;;;;;4982534;28;20059;-95
2023/11/23 03:11:25;;;;;;;6.15;1.40;;;10.80;99.90;;;;;;4981352;28;20479;-94
2023/11/23 03:13:57;;;;;;;3.38;0.90;;;10.80;99.90;;;;;;4981130;28;20042;-94
2023/11/23 03:16:24;;;;;;;4.15;2.05;;;10.80;99.90;;;;;;4980602;28;20029;-95
2023/11/23 03:18:50;;;;;;;1.98;1.33;;;10.80;99.90;;;;;;4980321;28;20042;-94
2023/11/23 03:21:16;;;;;;;3.65;1.25;;;10.80;99.90;;;;;;4980179;28;20049;-95
2023/11/23 03:23:42;;;;;;;4.25;1.30;;;10.80;99.90;;;;;;4980569;28;20026;-94
2023/11/23 03:26:09;;;;;;;3.50;1.20;;;10.80;99.90;;;;;;5001930;28;20034;-94
2023/11/23 03:28:35;;;;;;;3.83;1.05;;;10.80;99.90;;;;;;4985530;28;20061;-95
2023/11/23 03:31:00;;;;;;;3.28;1.17;;;10.90;99.90;;;;;;4989695;28;20019;-95
2023/11/23 03:33:27;;;;;;;3.42;1.00;;;10.90;99.90;;;;;;4986587;28;20038;-95
2023/11/23 03:35:53;;;;;;;4.93;1.02;;;10.90;99.90;;;;;;4985120;28;20027;-95
2023/11/23 03:38:19;;;;;;;3.72;0.77;;;10.90;99.90;;;;;;4986204;28;20049;-94
2023/11/23 03:40:44;;;;;;;5.53;1.08;;;10.90;99.90;;;;;;4986177;28;20342;-94
2023/11/23 03:43:10;;;;;;;6.35;1.48;;;10.80;99.90;;;;;;4985305;28;20022;-94
2023/11/23 03:45:36;;;;;;;7.32;1.27;;;10.80;99.90;;;;;;5002923;28;20101;-95
2023/11/23 03:48:01;;;;;;;5.05;2.03;;;10.90;99.90;;;;;;4992979;28;20018;-95
2023/11/23 03:50:27;;;;;;;4.45;1.35;;;10.80;99.90;;;;;;4999176;28;20030;-91
2023/11/23 03:52:53;;;;;;;6.85;1.48;;;10.90;99.90;;;;;;5001795;28;20046;-91
2023/11/23 03:55:19;;;;;;;5.68;1.35;;;10.80;99.90;;;;;;5000533;28;20006;-95
2023/11/23 03:57:45;;;;;;;3.95;1.13;;;10.80;99.90;;;;;;5002475;28;20018;-91
2023/11/23 04:00:12;;;;;;;3.67;1.02;;;10.90;99.90;;;;;;5002388;28;20015;-92
2023/11/23 04:02:38;;;;;;;3.88;1.45;;;10.90;99.90;;;;;;5002380;28;20050;-93
2023/11/23 04:05:04;;;;;;;5.47;1.40;;;10.90;99.90;;;;;;5002890;28;20028;-94
2023/11/23 04:07:32;;;;;;;3.20;1.23;;;10.90;99.90;;;;;;5002448;28;20042;-92
2023/11/23 04:09:58;;;;;;;4.80;1.45;;;10.90;99.90;;;;;;5002493;28;20034;-91
2023/11/23 04:12:23;;;;;;;2.50;0.90;;;10.90;99.90;;;;;;5001355;28;20086;-92
2023/11/23 04:14:49;;;;;;;4.53;1.10;;;10.90;99.90;;;;;;5002491;28;20030;-91
2023/11/23 04:17:15;;;;;;;1.38;0.80;;;10.90;99.90;;;;;;5002620;28;20094;-90
2023/11/23 04:19:40;;;;;;;2.88;1.23;;;10.90;99.90;;;;;;5018354;28;20028;-94
2023/11/23 04:22:06;;;;;;;3.20;1.50;;;10.90;99.90;;;;;;5002090;28;20038;-90
2023/11/23 04:24:35;;;;;;;8.40;2.13;;;10.90;99.90;;;;;;5001719;28;20034;-92
2023/11/23 04:27:01;;;;;;;4.57;1.17;;;10.90;99.90;;;;;;5033711;28;20033;-91
2023/11/23 04:29:27;;;;;;;8.00;2.10;;;10.90;99.90;;;;;;5000736;28;20034;-91
2023/11/23 04:31:52;;;;;;;6.65;1.27;;;11.00;99.90;;;;;;5001398;28;20033;-89
2023/11/23 04:34:18;;;;;;;4.78;1.27;;;11.00;99.90;;;;;;5002020;28;20030;-91
2023/11/23 04:36:44;;;;;;;7.57;1.50;;;11.00;99.90;;;;;;5002091;28;20038;-90
2023/11/23 04:39:12;;;;;;;6.30;1.17;;;11.00;99.90;;;;;;5002302;28;20029;-91
2023/11/23 04:41:38;;;;;;;4.68;1.23;;;11.00;99.90;;;;;;5002477;28;20014;-91
2023/11/23 04:44:04;;;;;;;5.95;1.42;;;11.00;99.90;;;;;;4988721;28;20033;-91
2023/11/23 04:46:30;;;;;;;9.10;1.85;;;11.00;99.90;;;;;;4992139;28;20029;-90
2023/11/23 04:48:56;;;;;;;4.82;1.20;;;11.10;99.90;;;;;;4985570;28;20035;-90
2023/11/23 04:51:21;;;;;;;6.68;1.67;;;11.10;99.90;;;;;;4990879;28;20013;-92
2023/11/23 04:53:47;;;;;;;10.63;2.25;;;11.10;99.90;;;;;;4991421;28;20030;-92
2023/11/23 04:56:13;;;;;;;5.60;1.42;;;11.10;99.90;;;;;;4990219;28;20047;-93
2023/11/23 04:58:39;;;;;;;6.57;1.55;;;11.00;99.90;;;;;;4979698;28;20252;-95
2023/11/23 05:01:05;;;;;;;8.93;1.40;;;11.00;99.90;;;;;;4976327;28;20031;-93
2023/11/23 05:03:33;;;;;;;4.65;1.38;;;11.00;99.90;;;;;;4987013;28;20031;-95
2023/11/23 05:05:58;;;;;;;5.43;1.30;;;11.00;99.90;;;;;;4983707;28;20594;-93
2023/11/23 05:08:24;;;;;;;6.07;1.65;;;11.00;99.90;;;;;;4983874;28;20022;-94
2023/11/23 05:10:50;;;;;;;9.27;1.52;;;11.00;99.90;;;;;;4976263;28;20044;-95
2023/11/23 05:13:15;;;;;;;3.80;1.50;;;11.00;99.90;;;;;;4970341;28;20039;-95
2023/11/23 05:15:41;;;;;;;8.30;2.50;;;11.00;99.90;;;;;;4966113;28;20117;-94
2023/11/23 05:18:07;;;;;;;8.45;1.45;;;11.00;99.90;;;;;;4966655;28;20031;-94
2023/11/23 05:20:33;;;;;;;5.53;1.10;;;10.90;99.90;;;;;;4968608;28;20019;-95
2023/11/23 05:22:59;;;;;;;6.70;1.90;;;10.90;99.90;;;;;;4963372;28;20417;-95
2023/11/23 05:25:25;;;;;;;9.52;1.60;;;10.90;99.90;;;;;;4964836;28;20027;-96
2023/11/23 05:27:50;;;;;;;8.05;1.55;;;10.90;99.90;;;;;;4967853;28;20034;-95
2023/11/23 05:30:19;;;;;;;3.90;1.58;;;10.90;99.90;;;;;;4968835;28;20062;-94
2023/11/23 05:32:45;;;;;;;7.18;1.45;;;10.90;99.90;;;;;;4975042;28;20079;-94
2023/11/23 05:35:12;;;;;;;5.68;1.35;;;10.90;99.90;;;;;;4976283;28;20034;-94
2023/11/23 05:37:39;;;;;;;4.40;1.70;;;10.80;99.90;;;;;;4979429;28;20027;-94
2023/11/23 05:40:08;;;;;;;9.35;1.70;;;10.80;99.90;;;;;;4978053;28;20042;-94
2023/11/23 05:42:35;;;;;;;5.45;2.03;;;10.80;99.90;;;;;;4992349;28;20024;-94
2023/11/23 05:45:01;;;;;;;9.65;1.55;;;10.70;99.90;;;;;;4977969;28;20039;-96
2023/11/23 05:47:27;;;;;;;11.20;1.42;;;10.70;99.90;;;;;;4994440;28;20026;-94
2023/11/23 05:49:52;;;;;;;8.27;1.73;;;10.70;99.90;;;;;;4992064;28;20042;-95
2023/11/23 05:52:18;;;;;;;6.63;1.65;;;10.70;99.90;;;;;;4993315;28;20029;-95
2023/11/23 05:54:44;;;;;;;9.18;1.52;;;10.70;99.90;;;;;;4991777;28;20031;-95
2023/11/23 05:57:10;;;;;;;5.82;1.58;;;10.70;99.90;;;;;;4979398;28;20026;-95
2023/11/23 05:59:36;;;;;;;7.78;1.60;;;10.70;99.90;;;;;;4994595;28;20099;-94
2023/11/23 06:02:05;;;;;;;7.53;1.80;;;10.70;99.90;;;;;;4976911;28;20037;-94
2023/11/23 06:04:31;;;;;;;9.55;1.40;;;10.70;99.90;;;;;;4993999;28;20015;-95
2023/11/23 06:06:57;;;;;;;7.35;1.75;;;10.70;99.90;;;;;;4996098;28;20050;-94
2023/11/23 06:09:23;;;;;;;7.60;1.40;;;10.70;99.90;;;;;;4997425;28;20030;-93
2023/11/23 06:11:49;;;;;;;2.13;1.23;;;10.70;99.90;;;;;;4996631;28;20018;-94
2023/11/23 06:14:15;;;;;;;6.55;1.50;;;10.70;99.90;;;;;;4993185;28;20047;-95
2023/11/23 06:16:41;;;;;;;4.32;1.25;;;10.70;99.90;;;;;;4989792;28;20054;-93
2023/11/23 06:19:06;;;;;;;8.05;1.52;;;10.70;99.90;;;;;;4992962;28;20440;-96
2023/11/23 06:21:32;;;;;;;4.22;1.27;;;10.70;99.90;;;;;;4992405;28;20027;-96
2023/11/23 06:23:58;;;;;;;7.97;1.30;;;10.70;99.90;;;;;;4993118;28;20051;-96
2023/11/23 06:26:24;;;;;;;5.18;1.75;;;10.70;99.90;;;;;;4976646;28;20011;-94
2023/11/23 06:28:49;;;;;;;14.93;1.80;;;10.70;99.90;;;;;;4994751;28;20031;-96
2023/11/23 06:31:17;;;;;;;7.40;1.60;;;10.70;99.90;;;;;;4993316;28;20106;-94
2023/11/23 06:33:43;;;;;;;8.88;1.95;;;10.70;99.90;;;;;;4991170;28;20044;-96
2023/11/23 06:36:10;;;;;;;12.68;2.15;;;10.70;99.90;;;;;;4977944;28;20090;-93
2023/11/23 06:38:36;;;;;;;5.78;1.83;;;10.70;99.90;;;;;;4998462;28;20011;-96
2023/11/23 06:41:02;;;;;;;7.53;1.98;;;10.80;99.90;;;;;;4980402;28;20019;-96
2023/11/23 06:43:29;;;;;;;5.97;1.83;;;10.70;99.90;;;;;;4978932;28;20041;-91
2023/11/23 06:45:57;;;;;;;6.05;2.45;;;10.80;99.90;;;;;;4999310;28;20054;-93
2023/11/23 06:48:23;;;;;;;6.22;1.90;;;10.80;99.90;;;;;;4978902;28;20091;-95
2023/11/23 06:50:48;;;;;;;11.10;2.25;;;10.80;99.90;;;;;;4978797;28;20031;-94
2023/11/23 06:53:14;;;;;;;6.75;1.90;;;10.80;99.90;;;;;;4981224;28;20054;-95
2023/11/23 06:55:40;;;;;;;8.77;3.05;;;10.90;99.90;;;;;;4978367;28;20038;-96
2023/11/23 06:58:07;;;;;;;5.65;1.58;;;10.80;99.90;;;;;;4976846;28;20018;-95
2023/11/23 07:00:33;;;;;;;14.38;2.45;;;10.90;99.90;;;;;;4977057;28;20023;-93
2023/11/23 07:03:00;;;;;;;9.93;2.15;;;10.80;99.90;;;;;;4997362;28;20060;-93
2023/11/23 07:05:34;;;;;;;9.15;1.73;;;10.90;99.90;;;;;;4980543;28;20034;-94
2023/11/23 07:07:59;;;;;;;6.55;1.52;;;10.90;99.90;;;;;;4955313;29;20043;-95
2023/11/23 07:10:25;;;;;;;5.15;1.85;;;10.90;99.90;;;;;;4977183;28;20050;-93
2023/11/23 07:12:51;;;;;;;11.48;1.92;;;10.90;99.90;;;;;;4961070;29;20062;-93
2023/11/23 07:15:17;;;;;;;10.05;1.73;;;10.90;99.90;;;;;;4960446;28;20026;-89
2023/11/23 07:17:43;;;;;;;6.82;1.65;;;10.90;99.90;;;;;;4962650;29;20044;-90
2023/11/23 07:20:12;;;;;;;10.77;2.28;;;10.90;99.90;;;;;;4954011;29;20039;-94
2023/11/23 07:22:39;;;;;;;9.18;1.60;;;10.90;99.90;;;;;;4948404;28;20051;-94
2023/11/23 07:25:09;;;;;;;6.97;2.35;;;10.90;99.90;;;;;;4956430;29;20044;-95
2023/11/23 07:27:37;;;;;;;7.45;1.90;;;10.90;99.90;;;;;;4938348;29;20057;-94
2023/11/23 07:30:08;;;;;;;6.00;2.20;;;11.00;99.90;;;;;;4955861;29;20095;-95
2023/11/23 07:32:34;;;;;;;8.85;2.20;;;11.00;99.90;;;;;;4959180;29;20107;-94
2023/11/23 07:35:00;;;;;;;8.32;1.73;;;11.00;99.90;;;;;;4955592;29;20043;-95
2023/11/23 07:37:26;;;;;;;9.00;2.50;;;11.00;99.90;;;;;;4951565;29;20051;-95
2023/11/23 07:39:52;;;;;;;6.72;2.00;;;10.90;99.90;;;;;;4954660;29;20031;-96
2023/11/23 07:42:26;;;;;;;9.90;4.15;;;11.00;99.90;;;;;;4949318;29;20091;-95
2023/11/23 07:44:52;;;;;;;7.53;2.55;;;10.90;99.90;;;;;;4946275;29;20023;-93
2023/11/23 07:47:18;;;;;;;4.45;2.40;;;10.90;99.90;;;;;;4967101;28;20011;-91
2023/11/23 07:49:46;;;;;;;7.15;2.17;;;11.00;99.90;;;;;;4952313;29;20031;-92
2023/11/23 07:52:13;;;;;;;7.30;2.40;;;10.90;99.90;;;;;;4951575;29;20118;-94
2023/11/23 07:54:39;;;;;;;10.02;2.90;;;10.90;99.90;;;;;;4946080;29;20494;-94
2023/11/23 07:57:04;;;;;;;10.27;3.42;;;10.90;99.90;;;;;;4953189;29;20035;-94
2023/11/23 07:59:34;;;;;;;11.80;3.80;;;10.90;99.90;;;;;;4950135;29;20077;-93
2023/11/23 08:02:01;;;;;;;10.20;3.78;;;10.90;99.90;;;;;;4950830;29;20035;-94
2023/11/23 08:04:26;;;;;;;4.70;3.00;;;10.90;99.90;;;;;;4950368;29;20082;-93
2023/11/23 08:06:52;;;;;;;10.00;3.50;;;10.90;99.90;;;;;;4971116;28;20074;-94
2023/11/23 08:09:20;;;;;;;7.40;2.88;;;10.90;99.90;;;;;;4994196;28;20472;-93
2023/11/23 08:11:47;;;;;;;8.40;3.97;;;10.90;99.90;;;;;;4998005;28;20064;-93
2023/11/23 08:14:13;;;;;;;9.60;3.83;;;10.90;99.90;;;;;;4996974;28;20049;-94
2023/11/23 08:16:38;;;;;;;9.63;4.90;;;10.90;99.90;;;;;;4996899;28;20007;-94
2023/11/23 08:19:04;;;;;;;6.55;4.07;;;10.90;99.90;;;;;;4987676;28;20114;-93
2023/11/23 08:21:30;;;;;;;11.00;5.28;;;10.90;99.90;;;;;;4998063;28;20018;-91
2023/11/23 08:23:56;;;;;;;10.70;6.20;;;10.90;99.90;;;;;;4997215;28;20022;-93
2023/11/23 08:26:22;;;;;;;10.18;4.90;;;10.90;99.90;;;;;;4998298;28;20041;-93
2023/11/23 08:28:49;;;;;;;9.73;4.75;;;10.90;99.90;;;;;;4986336;28;20078;-94
2023/11/23 08:31:15;;;;;;;7.53;5.43;;;10.90;99.90;;;;;;4997772;28;20023;-93
2023/11/23 08:33:40;;;;;;;10.15;5.07;;;10.90;99.90;;;;;;4987032;28;20077;-94
2023/11/23 08:36:06;;;;;;;6.60;4.53;;;10.90;99.90;;;;;;4999312;28;20030;-96
2023/11/23 08:38:32;;;;;;;10.18;4.97;;;10.90;99.90;;;;;;4982853;28;20050;-95
2023/11/23 08:41:00;;;;;;;12.30;5.93;;;10.90;99.90;;;;;;4996126;28;20038;-91
2023/11/23 08:43:26;;;;;;;12.13;5.15;;;10.90;99.90;;;;;;4997630;28;20038;-92
2023/11/23 08:45:51;;;;;;;11.75;5.47;;;10.80;99.90;;;;;;4981937;28;20035;-93
2023/11/23 08:48:22;;;;;;;8.35;4.75;;;10.90;99.90;;;;;;4994442;28;20038;-95
2023/11/23 08:50:48;;;;;;;7.22;4.15;;;10.80;99.90;;;;;;4994735;28;20014;-95
2023/11/23 08:53:15;;;;;;;6.97;3.45;;;10.80;99.90;;;;;;4975658;28;20114;-92
2023/11/23 08:55:40;;;;;;;11.80;4.35;;;10.80;99.90;;;;;;4996229;28;20106;-93
2023/11/23 08:58:07;;;;;;;7.45;4.35;;;10.80;99.90;;;;;;4978403;28;20031;-91
2023/11/23 09:00:33;;;;;;;9.00;3.65;;;10.80;99.90;;;;;;4992416;28;20026;-92
2023/11/23 09:02:59;;;;;;;6.40;3.60;;;10.80;99.90;;;;;;4993479;28;20074;-93
2023/11/23 09:05:25;;;;;;;7.55;2.88;;;10.80;99.90;;;;;;4976853;28;20031;-95
2023/11/23 09:07:50;;;;;;;7.30;3.45;;;10.80;99.90;;;;;;4976158;28;20050;-92
2023/11/23 09:10:16;;;;;;;10.75;3.35;;;10.80;99.90;;;;;;4977974;28;20026;-93
2023/11/23 09:12:43;;;;;;;6.30;4.00;;;10.80;99.90;;;;;;4978503;28;20035;-94
2023/11/23 09:15:10;;;;;;;6.55;3.08;;;10.80;99.90;;;;;;4977057;28;20543;-93
2023/11/23 09:17:36;;;;;;;6.10;2.80;;;10.80;99.90;;;;;;4991013;28;20054;-92
2023/11/23 09:20:04;;;;;;;9.13;4.03;;;10.80;99.90;;;;;;4973634;28;20058;-92
2023/11/23 09:22:33;;;;;;;8.20;3.20;;;10.80;99.90;;;;;;4976611;28;20031;-94
2023/11/23 09:24:59;;;;;;;6.60;2.63;;;10.80;99.90;;;;;;4974664;28;20014;-93
2023/11/23 09:27:25;;;;;;;6.63;2.03;;;10.80;99.90;;;;;;4991093;28;20010;-95
2023/11/23 09:29:50;;;;;;;8.32;2.05;;;10.80;99.90;;;;;;4970558;28;20035;-90
2023/11/23 09:32:16;;;;;;;5.63;1.58;;;10.80;99.90;;;;;;4975437;28;20115;-93
2023/11/23 09:34:42;;;;;;;6.40;2.05;;;10.90;99.90;;;;;;4977203;28;20035;-90
2023/11/23 09:37:08;;;;;;;5.65;1.83;;;10.90;99.90;;;;;;4977700;28;20018;-94
2023/11/23 09:39:35;;;;;;;3.78;1.92;;;10.90;99.90;;;;;;4980164;28;20019;-93
2023/11/23 09:42:03;;;;;;;3.72;1.65;;;10.90;99.90;;;;;;4967651;28;20029;-94
2023/11/23 09:44:29;;;;;;;7.78;1.65;;;10.90;99.90;;;;;;4986965;28;20037;-94
2023/11/23 09:46:56;;;;;;;5.70;1.58;;;10.90;99.90;;;;;;4986471;28;20031;-94
2023/11/23 09:49:23;;;;;;;4.43;2.13;;;11.00;99.90;;;;;;4977093;28;20022;-91
2023/11/23 09:51:51;;;;;;;6.28;1.35;;;11.00;99.90;;;;;;4972312;28;20027;-94
2023/11/23 09:54:23;;;;;;;5.80;1.98;;;11.00;99.90;;;;;;4965011;28;20038;-93
2023/11/23 09:56:49;;;;;;;8.05;1.60;;;11.00;99.90;;;;;;4966127;28;20031;-94
2023/11/23 09:59:16;;;;;;;7.82;1.27;;;11.00;99.90;;;;;;4970404;28;20027;-95
2023/11/23 10:01:47;;;;;;;5.18;1.52;;;11.00;99.90;;;;;;4968075;28;20041;-94
2023/11/23 10:04:13;;;;;;;6.38;1.58;;;11.00;99.90;;;;;;4964418;29;20074;-95
2023/11/23 10:06:40;;;;;;;5.05;1.45;;;11.10;99.90;;;;;;4950554;29;20066;-94
2023/11/23 10:09:09;;;;;;;5.90;1.77;;;11.10;99.90;;;;;;4955402;29;20023;-95
2023/11/23 10:11:36;;;;;;;7.85;1.67;;;11.10;99.90;;;;;;4953172;29;20027;-92
2023/11/23 10:14:02;;;;;;;6.90;1.60;;;11.10;99.90;;;;;;4963602;29;20027;-93
2023/11/23 10:16:32;;;;;;;8.10;2.60;;;11.10;99.90;;;;;;4957351;29;20034;-96
2023/11/23 10:18:58;;;;;;;7.60;1.70;;;11.10;99.90;;;;;;4958750;28;20106;-94
2023/11/23 10:21:24;;;;;;;6.55;1.98;;;11.20;99.90;;;;;;4960220;29;20034;-93
2023/11/23 10:23:50;;;;;;;5.75;1.33;;;11.20;99.90;;;;;;4961836;28;20023;-94
2023/11/23 10:26:16;;;;;;;3.00;1.50;;;11.20;99.90;;;;;;4962446;28;20181;-93
2023/11/23 10:28:41;;;;;;;5.63;1.60;;;11.20;99.90;;;;;;4960911;28;20099;-92
2023/11/23 10:31:08;;;;;;;9.02;1.60;;;11.20;99.90;;;;;;4985061;28;20065;-92
2023/11/23 10:33:37;;;;;;;4.53;1.83;;;11.20;99.90;;;;;;4984636;28;20074;-92
2023/11/23 10:36:05;;;;;;;3.73;1.53;;;11.20;99.90;;;;;;4982449;28;20038;-93
2023/11/23 10:38:40;;;;;;;2.17;0.98;;;11.10;99.90;;;;;;4973318;29;20107;-93
2023/11/23 10:41:08;;;;;;;6.20;2.05;;;11.10;99.90;;;;;;4982229;28;20029;-93
2023/11/23 10:43:38;;;;;;;6.85;1.40;;;11.10;99.90;;;;;;4981143;28;20015;-94
2023/11/23 10:46:10;;;;;;;8.07;2.50;;;11.00;99.90;;;;;;4997975;28;20058;-94
2023/11/23 10:48:36;;;;;;;6.60;1.48;;;11.00;99.90;;;;;;4979495;28;20045;-94
2023/11/23 10:51:06;;;;;;;6.80;1.58;;;11.00;99.90;;;;;;4977130;28;20022;-93
2023/11/23 10:53:32;;;;;;;6.97;1.42;;;11.00;99.90;;;;;;4977640;28;20134;-95
2023/11/23 10:56:16;;;;;;;4.70;1.70;;;10.90;99.90;;;;;;4974808;28;20042;-96
2023/11/23 10:58:44;;;;;;;7.15;2.63;;;11.00;99.90;;;;;;4977200;28;20030;-95
2023/11/23 11:01:12;;;;;;;4.63;1.52;;;10.90;99.90;;;;;;4978666;28;20026;-94
2023/11/23 11:03:38;;;;;;;8.55;1.90;;;11.00;99.90;;;;;;4977353;28;20026;-95
2023/11/23 11:06:10;;;;;;;10.32;1.77;;;11.00;99.90;;;;;;4975380;28;20058;-94
2023/11/23 11:08:49;;;;;;;3.92;1.60;;;11.00;99.90;;;;;;4972407;28;20030;-95
2023/11/23 11:11:25;;;;;;;4.13;2.15;;;11.00;99.90;;;;;;5008347;28;20015;-94
2023/11/23 11:14:02;;;;;;;12.80;2.17;;;11.00;99.90;;;;;;4977909;28;20054;-93
2023/11/23 11:16:40;;;;;;;8.50;1.73;;;11.00;99.90;;;;;;4960434;29;20556;-95
2023/11/23 11:19:13;;;;;;;7.75;1.42;;;11.00;99.90;;;;;;4964889;28;20039;-95
2023/11/23 11:21:58;;;;;;;5.25;1.90;;;11.00;99.90;;;;;;4981348;28;20026;-93
2023/11/23 11:24:29;;;;;;;7.43;1.70;;;11.10;99.90;;;;;;4982483;28;20058;-94
2023/11/23 11:27:01;;;;;;;5.80;1.30;;;11.10;99.90;;;;;;4976486;28;20058;-95
2023/11/23 11:29:33;;;;;;;8.30;1.63;;;11.10;99.90;;;;;;4974691;28;20108;-95
2023/11/23 11:32:04;;;;;;;6.00;1.10;;;11.20;99.90;;;;;;4961202;28;20103;-92
2023/11/23 11:34:39;;;;;;;5.93;1.48;;;11.20;99.90;;;;;;4963788;28;20051;-95
2023/11/23 11:37:07;;;;;;;7.10;1.15;;;11.20;99.90;;;;;;4970398;28;20015;-93
2023/11/23 11:39:37;;;;;;;5.07;1.10;;;11.30;99.90;;;;;;4983656;28;20015;-92
2023/11/23 11:42:13;;;;;;;4.88;1.40;;;11.30;99.90;;;;;;4999866;28;20034;-93
2023/11/23 11:44:45;;;;;;;6.78;1.35;;;11.30;99.90;;;;;;4995877;28;20015;-94
2023/11/23 11:47:12;;;;;;;4.38;1.10;;;11.40;99.90;;;;;;4968525;28;20066;-92
2023/11/23 11:49:38;;;;;;;3.67;1.35;;;11.40;99.90;;;;;;4975175;28;20025;-91
2023/11/23 11:52:08;;;;;;;6.30;2.30;;;11.40;99.90;;;;;;4983529;28;20042;-91
2023/11/23 11:54:37;;;;;;;6.00;2.25;;;11.40;99.90;;;;;;4980209;28;20023;-92
2023/11/23 11:57:11;;;;;;;0.65;0.45;;;11.40;99.90;;;;;;4982411;28;20023;-94
2023/11/23 11:59:38;;;;;;;6.85;1.48;;;11.50;99.90;;;;;;4965831;28;20035;-92
2023/11/23 12:02:05;;;;;;;8.63;1.60;;;11.40;99.90;;;;;;4980630;28;20007;-94
2023/11/23 12:04:35;;;;;;;6.82;1.55;;;11.50;99.90;;;;;;4980366;28;20031;-94
2023/11/23 12:07:01;;;;;;;3.80;1.20;;;11.50;99.90;;;;;;4962483;28;20066;-94
2023/11/23 12:09:28;;;;;;;4.97;1.20;;;11.50;99.90;;;;;;4975431;28;20032;-94
2023/11/23 12:12:10;;;;;;;6.75;1.20;;;11.50;99.90;;;;;;5002194;28;20018;-92
2023/11/23 12:14:37;;;;;;;6.03;1.33;;;11.60;99.90;;;;;;5198831;23;20049;-93
2023/11/23 12:17:10;;;;;;;7.53;1.85;;;11.60;99.90;;;;;;4999005;28;20019;-93
2023/11/23 12:19:36;;;;;;;7.85;1.27;;;11.60;99.90;;;;;;4999265;28;20011;-93
2023/11/23 12:22:02;;;;;;;7.38;1.45;;;11.60;99.90;;;;;;4998656;28;20054;-95
2023/11/23 12:24:30;;;;;;;6.45;2.35;;;11.60;99.90;;;;;;5002203;28;20011;-92
2023/11/23 12:26:57;;;;;;;5.93;1.02;;;11.50;99.90;;;;;;5002545;28;20026;-92
2023/11/23 12:29:30;;;;;;;7.40;1.40;;;11.50;99.90;;;;;;5002598;28;20061;-91
2023/11/23 12:32:01;;;;;;;6.47;1.25;;;11.50;99.90;;;;;;5002547;28;20034;-90
2023/11/23 12:34:27;;;;;;;5.72;1.30;;;11.50;99.90;;;;;;5001477;28;20042;-91
2023/11/23 12:36:55;;;;;;;9.85;1.08;;;11.40;99.90;;;;;;4981945;28;20023;-90
2023/11/23 12:39:21;;;;;;;5.55;0.95;;;11.40;99.90;;;;;;4994506;28;20026;-90
2023/11/23 12:41:47;;;;;;;11.85;1.77;;;11.40;99.90;;;;;;5002079;28;20019;-90
2023/11/23 12:44:12;;;;;;;12.25;1.85;;;11.40;99.90;;;;;;5002029;28;20073;-89